createdAt,value
2018-01-10T00:01:38.281Z,5.44
2018-01-10T00:02:38.271Z,5.38
2018-01-10T00:04:32.679Z,5.38
2018-01-10T00:05:32.627Z,5.32
2018-01-10T00:07:27.180Z,5.39
2018-01-10T00:08:27.080Z,5.30
2018-01-10T00:10:21.451Z,5.36
2018-01-10T00:11:21.442Z,5.38
2018-01-10T00:13:15.946Z,5.39
2018-01-10T00:14:15.839Z,5.35
2018-01-10T00:16:10.203Z,5.30
2018-01-10T00:17:10.192Z,5.32
2018-01-10T00:19:04.846Z,5.21
2018-01-10T00:20:04.538Z,5.18
2018-01-10T00:21:58.904Z,5.11
2018-01-10T00:22:58.892Z,5.12
2018-01-10T00:24:53.345Z,5.17
2018-01-10T00:25:53.247Z,5.05
2018-01-10T00:27:47.611Z,5.02
2018-01-10T00:28:47.606Z,5.00
2018-01-10T00:30:42.052Z,5.05
2018-01-10T00:31:41.956Z,5.07
2018-01-10T00:33:36.382Z,5.08
2018-01-10T00:34:36.300Z,4.99
2018-01-10T00:36:30.664Z,5.02
2018-01-10T00:37:30.652Z,4.99
2018-01-10T00:39:25.060Z,5.07
2018-01-10T00:40:25.001Z,5.04
2018-01-10T00:42:19.355Z,4.99
2018-01-10T00:43:19.343Z,4.99
2018-01-10T00:45:13.757Z,5.04
2018-01-10T00:46:13.702Z,5.02
2018-01-10T00:48:08.154Z,5.00
2018-01-10T00:49:08.059Z,5.02
2018-01-10T00:51:02.418Z,5.04
2018-01-10T00:52:02.407Z,5.10
2018-01-10T00:53:56.828Z,4.93
2018-01-10T00:54:56.767Z,4.92
2018-01-10T00:56:51.136Z,5.00
2018-01-10T00:57:51.126Z,4.89
2018-01-10T00:59:45.569Z,4.92
2018-01-10T01:00:45.478Z,4.94
2018-01-10T01:02:39.896Z,4.75
2018-01-10T01:03:39.834Z,4.78
2018-01-10T01:05:34.198Z,4.78
2018-01-10T01:06:34.190Z,4.77
2018-01-10T01:08:28.644Z,4.77
2018-01-10T01:09:28.531Z,4.82
2018-01-10T01:11:22.899Z,4.77
2018-01-10T01:12:22.888Z,4.74
2018-01-10T01:14:17.365Z,4.71
2018-01-10T01:15:17.329Z,4.75
2018-01-10T01:17:11.606Z,4.71
2018-01-10T01:18:11.596Z,4.71
2018-01-10T01:20:06.010Z,4.60
2018-01-10T01:21:05.960Z,4.60
2018-01-10T01:23:00.565Z,4.59
2018-01-10T01:24:00.314Z,4.59
2018-01-10T01:25:54.673Z,4.62
2018-01-10T01:26:54.660Z,4.60
2018-01-10T01:28:49.119Z,4.62
2018-01-10T01:29:49.018Z,4.60
2018-01-10T01:31:44.010Z,4.66
2018-01-10T01:32:43.439Z,4.59
2018-01-10T01:34:37.957Z,4.60
2018-01-10T01:35:37.728Z,4.62
2018-01-10T01:37:32.092Z,4.63
2018-01-10T01:38:32.076Z,4.62
2018-01-10T01:40:26.492Z,4.62
2018-01-10T01:41:26.436Z,4.56
2018-01-10T01:43:20.822Z,4.53
2018-01-10T01:44:20.780Z,4.55
2018-01-10T01:46:15.258Z,4.66
2018-01-10T01:47:15.149Z,4.52
2018-01-10T01:49:09.501Z,4.56
2018-01-10T01:50:09.487Z,4.62
2018-01-10T01:52:03.898Z,4.62
2018-01-10T01:53:03.844Z,4.50
2018-01-10T01:54:58.212Z,4.58
2018-01-10T01:55:58.203Z,4.56
2018-01-10T01:57:52.617Z,4.52
2018-01-10T01:58:52.565Z,4.62
2018-01-10T02:00:46.947Z,4.62
2018-01-10T02:01:46.918Z,4.60
2018-01-10T02:03:41.373Z,4.62
2018-01-10T02:04:41.272Z,4.67
2018-01-10T02:06:35.677Z,4.74
2018-01-10T02:07:35.626Z,4.71
2018-01-10T02:09:30.002Z,4.73
2018-01-10T02:10:29.990Z,4.78
2018-01-10T02:12:24.517Z,4.78
2018-01-10T02:13:24.343Z,4.77
2018-01-10T02:15:18.707Z,4.68
2018-01-10T02:16:18.699Z,4.71
2018-01-10T02:18:13.145Z,4.73
2018-01-10T02:19:13.050Z,4.71
2018-01-10T02:21:07.500Z,4.86
2018-01-10T02:22:07.394Z,4.77
2018-01-10T02:24:01.760Z,4.82
2018-01-10T02:25:01.750Z,4.77
2018-01-10T02:26:56.151Z,4.84
2018-01-10T02:27:56.093Z,4.92
2018-01-10T02:29:50.463Z,4.89
2018-01-10T02:30:50.468Z,4.93
2018-01-10T02:32:44.860Z,4.94
2018-01-10T02:33:44.809Z,4.89
2018-01-10T02:35:39.173Z,4.90
2018-01-10T02:36:39.161Z,4.92
2018-01-10T02:38:33.821Z,4.89
2018-01-10T02:39:33.536Z,4.92
2018-01-10T02:41:27.901Z,4.89
2018-01-10T02:42:27.890Z,4.93
2018-01-10T02:44:22.297Z,4.96
2018-01-10T02:45:22.234Z,4.93
2018-01-10T02:47:16.600Z,4.93
2018-01-10T02:48:16.588Z,4.93
2018-01-10T02:50:11.008Z,4.94
2018-01-10T02:51:10.943Z,4.84
2018-01-10T02:53:05.310Z,4.92
2018-01-10T02:54:05.300Z,4.92
2018-01-10T02:55:59.753Z,4.94
2018-01-10T02:56:59.655Z,5.07
2018-01-10T02:58:56.000Z,4.94
2018-01-10T02:59:55.990Z,4.89
2018-01-10T03:00:57.051Z,4.92
2018-01-10T03:01:55.974Z,4.90
2018-01-10T03:02:55.968Z,4.90
2018-01-10T03:03:55.960Z,4.77
2018-01-10T03:04:55.953Z,4.92
2018-01-10T03:05:55.945Z,4.90
2018-01-10T03:06:55.940Z,4.90
2018-01-10T03:07:55.931Z,4.89
2018-01-10T03:08:55.928Z,4.84
2018-01-10T03:09:55.920Z,4.89
2018-01-10T03:10:55.912Z,4.82
2018-01-10T03:11:55.908Z,4.82
2018-01-10T03:12:55.898Z,4.77
2018-01-10T03:13:55.914Z,4.78
2018-01-10T03:14:55.882Z,4.75
2018-01-10T03:15:55.875Z,4.75
2018-01-10T03:16:55.868Z,4.74
2018-01-10T03:17:55.866Z,4.77
2018-01-10T03:18:55.854Z,4.78
2018-01-10T03:19:55.848Z,4.77
2018-01-10T03:20:55.840Z,4.90
2018-01-10T03:21:55.832Z,4.93
2018-01-10T03:22:55.827Z,4.84
2018-01-10T03:23:55.821Z,4.92
2018-01-10T03:24:55.811Z,4.87
2018-01-10T03:25:55.805Z,4.93
2018-01-10T03:26:55.798Z,4.87
2018-01-10T03:27:55.792Z,4.74
2018-01-10T03:28:55.792Z,4.75
2018-01-10T03:29:55.781Z,4.82
2018-01-10T03:30:55.770Z,4.75
2018-01-10T03:31:55.772Z,4.71
2018-01-10T03:32:55.855Z,4.75
2018-01-10T03:33:55.748Z,4.84
2018-01-10T03:34:55.740Z,4.75
2018-01-10T03:35:55.733Z,4.77
2018-01-10T03:36:55.726Z,4.73
2018-01-10T03:37:55.717Z,4.77
2018-01-10T03:38:55.712Z,4.80
2018-01-10T03:39:55.704Z,4.77
2018-01-10T03:40:55.697Z,4.74
2018-01-10T03:41:55.690Z,4.78
2018-01-10T03:42:55.684Z,4.75
2018-01-10T03:43:55.675Z,4.71
2018-01-10T03:44:55.668Z,4.86
2018-01-10T03:45:55.663Z,4.77
2018-01-10T03:46:55.656Z,4.80
2018-01-10T03:47:55.648Z,4.75
2018-01-10T03:48:55.639Z,4.78
2018-01-10T03:49:55.634Z,4.80
2018-01-10T03:50:55.627Z,4.75
2018-01-10T03:51:55.619Z,4.77
2018-01-10T03:52:55.611Z,4.71
2018-01-10T03:53:55.605Z,4.86
2018-01-10T03:54:55.599Z,4.77
2018-01-10T03:55:55.589Z,4.84
2018-01-10T03:56:55.582Z,4.80
2018-01-10T03:57:55.575Z,4.73
2018-01-10T03:58:55.795Z,4.71
2018-01-10T03:59:55.560Z,4.77
2018-01-10T04:00:55.557Z,4.80
2018-01-10T04:01:55.548Z,4.80
2018-01-10T04:02:55.540Z,4.82
2018-01-10T04:03:55.534Z,4.82
2018-01-10T04:04:55.568Z,4.74
2018-01-10T04:05:55.518Z,4.84
2018-01-10T04:06:55.511Z,4.77
2018-01-10T04:07:55.503Z,4.77
2018-01-10T04:08:55.496Z,4.84
2018-01-10T04:09:55.491Z,4.84
2018-01-10T04:10:55.483Z,4.71
2018-01-10T04:11:55.480Z,4.74
2018-01-10T04:12:55.469Z,4.77
2018-01-10T04:13:55.461Z,4.78
2018-01-10T04:14:55.457Z,4.78
2018-01-10T04:15:55.450Z,4.74
2018-01-10T04:16:55.440Z,4.70
2018-01-10T04:17:55.433Z,4.60
2018-01-10T04:18:55.478Z,4.62
2018-01-10T04:19:55.409Z,4.66
2018-01-10T04:20:55.401Z,4.62
2018-01-10T04:21:55.394Z,4.60
2018-01-10T04:22:55.406Z,4.58
2018-01-10T04:23:55.378Z,4.59
2018-01-10T04:24:55.371Z,4.60
2018-01-10T04:25:55.365Z,4.62
2018-01-10T04:26:55.357Z,4.66
2018-01-10T04:27:55.348Z,4.70
2018-01-10T04:28:55.342Z,4.71
2018-01-10T04:29:55.335Z,4.70
2018-01-10T04:30:55.329Z,4.73
2018-01-10T04:31:55.325Z,4.73
2018-01-10T04:32:55.312Z,4.70
2018-01-10T04:33:56.004Z,4.68
2018-01-10T04:34:55.310Z,4.71
2018-01-10T04:35:55.302Z,4.77
2018-01-10T04:36:55.283Z,4.70
2018-01-10T04:37:55.277Z,4.73
2018-01-10T04:38:55.270Z,4.73
2018-01-10T04:39:55.261Z,4.71
2018-01-10T04:40:55.256Z,4.70
2018-01-10T04:41:55.248Z,4.73
2018-01-10T04:42:55.241Z,4.84
2018-01-10T04:43:55.235Z,4.73
2018-01-10T04:44:55.228Z,4.75
2018-01-10T04:45:55.220Z,4.82
2018-01-10T04:46:55.212Z,4.78
2018-01-10T04:47:55.204Z,4.75
2018-01-10T04:48:55.197Z,4.75
2018-01-10T04:49:55.190Z,4.78
2018-01-10T04:50:55.186Z,4.78
2018-01-10T04:51:55.175Z,4.84
2018-01-10T04:52:55.170Z,4.82
2018-01-10T04:53:55.164Z,4.75
2018-01-10T04:54:55.156Z,4.77
2018-01-10T04:55:55.147Z,4.78
2018-01-10T04:56:55.141Z,4.84
2018-01-10T04:57:55.133Z,4.87
2018-01-10T04:58:55.127Z,4.84
2018-01-10T04:59:55.120Z,4.74
2018-01-10T05:00:55.106Z,4.86
2018-01-10T05:01:55.096Z,4.84
2018-01-10T05:02:55.091Z,4.86
2018-01-10T05:03:55.084Z,4.75
2018-01-10T05:04:55.077Z,4.75
2018-01-10T05:05:55.068Z,4.78
2018-01-10T05:06:55.067Z,4.77
2018-01-10T05:07:55.054Z,4.78
2018-01-10T05:08:55.046Z,4.82
2018-01-10T05:09:55.045Z,4.80
2018-01-10T05:10:55.033Z,4.70
2018-01-10T05:11:55.029Z,4.70
2018-01-10T05:12:55.021Z,4.70
2018-01-10T05:13:55.012Z,4.63
2018-01-10T05:14:55.005Z,4.68
2018-01-10T05:15:54.997Z,4.60
2018-01-10T05:16:54.988Z,4.66
2018-01-10T05:17:54.983Z,4.63
2018-01-10T05:18:54.980Z,4.62
2018-01-10T05:19:54.968Z,4.59
2018-01-10T05:20:54.961Z,4.63
2018-01-10T05:21:54.951Z,4.66
2018-01-10T05:22:54.953Z,4.59
2018-01-10T05:23:54.937Z,4.62
2018-01-10T05:24:54.929Z,4.60
2018-01-10T05:25:54.926Z,4.67
2018-01-10T05:26:54.916Z,4.62
2018-01-10T05:27:54.909Z,4.63
2018-01-10T05:28:54.900Z,4.60
2018-01-10T05:29:54.896Z,4.60
2018-01-10T05:30:54.886Z,4.60
2018-01-10T05:31:54.879Z,4.56
2018-01-10T05:32:54.871Z,4.77
2018-01-10T05:33:54.904Z,4.71
2018-01-10T05:34:54.858Z,4.77
2018-01-10T05:35:54.848Z,4.73
2018-01-10T05:36:54.842Z,4.75
2018-01-10T05:37:54.834Z,4.63
2018-01-10T05:38:54.829Z,4.59
2018-01-10T05:39:54.820Z,4.67
2018-01-10T05:40:54.811Z,4.74
2018-01-10T05:41:54.818Z,4.66
2018-01-10T05:42:54.799Z,4.66
2018-01-10T05:43:54.789Z,4.60
2018-01-10T05:44:56.760Z,4.63
2018-01-10T05:45:54.786Z,4.62
2018-01-10T05:46:54.778Z,4.53
2018-01-10T05:47:54.763Z,4.60
2018-01-10T05:48:54.754Z,4.62
2018-01-10T05:49:54.764Z,4.62
2018-01-10T05:50:54.737Z,4.59
2018-01-10T05:51:54.731Z,4.55
2018-01-10T05:52:54.722Z,4.56
2018-01-10T05:53:54.720Z,4.63
2018-01-10T05:54:54.708Z,4.50
2018-01-10T05:55:54.699Z,4.53
2018-01-10T05:56:54.698Z,4.50
2018-01-10T05:57:54.717Z,4.53
2018-01-10T05:58:54.677Z,4.49
2018-01-10T05:59:54.670Z,4.50
2018-01-10T06:00:54.665Z,4.52
2018-01-10T06:01:54.696Z,4.48
2018-01-10T06:02:54.678Z,4.52
2018-01-10T06:03:54.649Z,4.50
2018-01-10T06:04:54.642Z,4.59
2018-01-10T06:05:54.625Z,4.55
2018-01-10T06:06:54.618Z,4.50
2018-01-10T06:07:54.611Z,4.56
2018-01-10T06:08:54.602Z,4.53
2018-01-10T06:09:54.593Z,4.52
2018-01-10T06:10:54.586Z,4.48
2018-01-10T06:11:54.580Z,4.50
2018-01-10T06:12:54.573Z,4.56
2018-01-10T06:13:54.563Z,4.49
2018-01-10T06:14:54.558Z,4.48
2018-01-10T06:15:54.548Z,4.49
2018-01-10T06:16:54.545Z,4.48
2018-01-10T06:17:54.534Z,4.42
2018-01-10T06:18:54.551Z,4.32
2018-01-10T06:19:54.545Z,4.37
2018-01-10T06:20:54.520Z,4.37
2018-01-10T06:21:54.513Z,4.35
2018-01-10T06:22:54.497Z,4.45
2018-01-10T06:23:54.491Z,4.40
2018-01-10T06:24:54.493Z,4.44
2018-01-10T06:25:54.655Z,4.48
2018-01-10T06:26:54.484Z,4.41
2018-01-10T06:27:54.624Z,4.49
2018-01-10T06:28:54.474Z,4.37
2018-01-10T06:29:54.444Z,4.38
2018-01-10T06:30:54.629Z,4.45
2018-01-10T06:31:54.437Z,4.48
2018-01-10T06:32:54.511Z,4.50
2018-01-10T06:33:54.410Z,4.52
2018-01-10T06:34:54.402Z,4.42
2018-01-10T06:35:54.406Z,4.49
2018-01-10T06:36:54.524Z,4.42
2018-01-10T06:37:54.390Z,4.40
2018-01-10T06:38:54.459Z,4.37
2018-01-10T06:39:54.386Z,4.42
2018-01-10T06:40:54.381Z,4.40
2018-01-10T06:41:54.349Z,4.35
2018-01-10T06:42:54.341Z,4.37
2018-01-10T06:43:54.335Z,4.40
2018-01-10T06:44:54.325Z,4.42
2018-01-10T06:45:54.320Z,4.37
2018-01-10T06:46:54.313Z,4.34
2018-01-10T06:47:54.314Z,4.48
2018-01-10T06:48:54.306Z,4.44
2018-01-10T06:49:54.299Z,4.42
2018-01-10T06:50:54.370Z,4.45
2018-01-10T06:51:54.276Z,4.50
2018-01-10T06:52:54.266Z,4.49
2018-01-10T06:53:54.258Z,4.49
2018-01-10T06:54:54.250Z,4.48
2018-01-10T06:55:54.244Z,4.48
2018-01-10T06:56:54.235Z,4.42
2018-01-10T06:57:54.259Z,4.49
2018-01-10T06:58:54.226Z,4.45
2018-01-10T06:59:54.213Z,4.48
2018-01-10T07:00:54.206Z,4.50
2018-01-10T07:01:54.222Z,4.44
2018-01-10T07:02:54.191Z,4.42
2018-01-10T07:03:54.184Z,4.45
2018-01-10T07:04:54.176Z,4.48
2018-01-10T07:05:54.179Z,4.38
2018-01-10T07:06:54.160Z,4.49
2018-01-10T07:07:54.154Z,4.37
2018-01-10T07:08:54.145Z,4.48
2018-01-10T07:09:54.136Z,4.32
2018-01-10T07:10:54.132Z,4.41
2018-01-10T07:11:54.124Z,4.34
2018-01-10T07:12:54.114Z,4.38
2018-01-10T07:13:54.106Z,4.45
2018-01-10T07:14:54.098Z,4.37
2018-01-10T07:15:54.097Z,4.32
2018-01-10T07:16:54.084Z,4.34
2018-01-10T07:17:54.078Z,4.38
2018-01-10T07:18:54.071Z,4.35
2018-01-10T07:19:54.072Z,4.34
2018-01-10T07:20:54.053Z,4.35
2018-01-10T07:21:54.046Z,4.34
2018-01-10T07:22:54.040Z,4.24
2018-01-10T07:23:54.032Z,4.26
2018-01-10T07:24:54.022Z,4.24
2018-01-10T07:25:54.015Z,4.24
2018-01-10T07:26:54.012Z,4.32
2018-01-10T07:27:53.999Z,4.28
2018-01-10T07:28:53.994Z,4.14
2018-01-10T07:29:53.997Z,4.24
2018-01-10T07:30:53.977Z,4.22
2018-01-10T07:31:53.967Z,4.20
2018-01-10T07:32:53.961Z,4.26
2018-01-10T07:33:53.953Z,4.23
2018-01-10T07:34:53.948Z,4.20
2018-01-10T07:35:53.937Z,4.14
2018-01-10T07:36:53.930Z,4.19
2018-01-10T07:37:53.925Z,4.13
2018-01-10T07:38:53.913Z,4.19
2018-01-10T07:39:53.906Z,4.16
2018-01-10T07:40:53.898Z,4.16
2018-01-10T07:41:53.930Z,4.16
2018-01-10T07:42:53.881Z,4.19
2018-01-10T07:43:53.879Z,4.23
2018-01-10T07:44:53.866Z,4.16
2018-01-10T07:45:53.865Z,4.16
2018-01-10T07:46:53.850Z,4.20
2018-01-10T07:47:53.840Z,4.26
2018-01-10T07:48:53.836Z,4.23
2018-01-10T07:49:53.830Z,4.16
2018-01-10T07:50:53.818Z,4.30
2018-01-10T07:51:53.811Z,4.23
2018-01-10T07:52:53.802Z,4.30
2018-01-10T07:53:53.800Z,4.26
2018-01-10T07:54:53.787Z,4.34
2018-01-10T07:55:53.777Z,4.28
2018-01-10T07:56:53.773Z,4.32
2018-01-10T07:57:53.764Z,4.26
2018-01-10T07:58:53.756Z,4.34
2018-01-10T07:59:53.745Z,4.41
2018-01-10T08:00:53.740Z,4.31
2018-01-10T08:01:53.732Z,4.30
2018-01-10T08:02:53.724Z,4.34
2018-01-10T08:03:53.715Z,4.42
2018-01-10T08:04:53.708Z,4.42
2018-01-10T08:05:53.700Z,4.52
2018-01-10T08:06:53.693Z,4.55
2018-01-10T08:07:53.683Z,4.58
2018-01-10T08:08:53.677Z,4.53
2018-01-10T08:09:53.670Z,4.48
2018-01-10T08:10:53.663Z,4.56
2018-01-10T08:11:53.656Z,4.55
2018-01-10T08:12:53.648Z,4.59
2018-01-10T08:13:53.639Z,4.60
2018-01-10T08:14:53.633Z,4.56
2018-01-10T08:15:53.627Z,4.55
2018-01-10T08:16:53.616Z,4.62
2018-01-10T08:17:53.608Z,4.58
2018-01-10T08:18:53.603Z,4.44
2018-01-10T08:19:53.597Z,4.59
2018-01-10T08:20:53.586Z,4.56
2018-01-10T08:21:53.579Z,4.53
2018-01-10T08:22:53.572Z,4.50
2018-01-10T08:23:53.564Z,4.45
2018-01-10T08:24:53.561Z,4.48
2018-01-10T08:25:53.550Z,4.49
2018-01-10T08:26:53.556Z,4.44
2018-01-10T08:27:53.534Z,4.48
2018-01-10T08:28:53.528Z,4.32
2018-01-10T08:29:53.538Z,4.40
2018-01-10T08:30:53.512Z,4.24
2018-01-10T08:31:53.503Z,4.30
2018-01-10T08:32:53.499Z,4.26
2018-01-10T08:33:53.492Z,4.26
2018-01-10T08:34:53.481Z,4.35
2018-01-10T08:35:53.472Z,4.30
2018-01-10T08:36:53.463Z,4.41
2018-01-10T08:37:53.461Z,4.42
2018-01-10T08:38:53.485Z,4.37
2018-01-10T08:39:53.446Z,4.38
2018-01-10T08:40:53.434Z,4.42
2018-01-10T08:41:53.427Z,4.40
2018-01-10T08:42:53.419Z,4.37
2018-01-10T08:43:53.413Z,4.37
2018-01-10T08:44:53.403Z,4.31
2018-01-10T08:45:53.398Z,4.41
2018-01-10T08:46:53.390Z,4.32
2018-01-10T08:47:53.379Z,4.30
2018-01-10T08:48:53.373Z,4.41
2018-01-10T08:49:53.377Z,4.34
2018-01-10T08:50:53.359Z,4.38
2018-01-10T08:51:53.348Z,4.24
2018-01-10T08:52:53.341Z,4.30
2018-01-10T08:53:53.336Z,4.28
2018-01-10T08:54:53.326Z,4.24
2018-01-10T08:55:53.318Z,4.35
2018-01-10T08:56:53.310Z,4.31
2018-01-10T08:57:53.304Z,4.32
2018-01-10T08:58:53.300Z,4.24
2018-01-10T08:59:54.082Z,4.31
2018-01-10T09:00:53.282Z,4.32
2018-01-10T09:01:53.273Z,4.28
2018-01-10T09:02:53.269Z,4.24
2018-01-10T09:03:53.258Z,4.35
2018-01-10T09:04:53.251Z,4.30
2018-01-10T09:05:53.246Z,4.35
2018-01-10T09:06:53.234Z,4.31
2018-01-10T09:07:53.227Z,4.41
2018-01-10T09:08:53.219Z,4.37
2018-01-10T09:09:53.219Z,4.45
2018-01-10T09:10:53.204Z,4.55
2018-01-10T09:11:53.196Z,4.48
2018-01-10T09:12:53.190Z,4.58
2018-01-10T09:13:53.185Z,4.66
2018-01-10T09:14:53.173Z,4.71
2018-01-10T09:15:53.167Z,4.80
2018-01-10T09:16:53.159Z,4.94
2018-01-10T09:17:53.151Z,4.82
2018-01-10T09:18:53.145Z,4.96
2018-01-10T09:19:53.136Z,4.94
2018-01-10T09:20:53.130Z,4.92
2018-01-10T09:21:53.122Z,4.89
2018-01-10T09:22:53.115Z,4.89
2018-01-10T09:23:53.106Z,4.86
2018-01-10T09:24:53.098Z,4.90
2018-01-10T09:25:53.099Z,4.75
2018-01-10T09:26:53.095Z,4.73
2018-01-10T09:27:53.095Z,4.80
2018-01-10T09:28:53.085Z,4.74
2018-01-10T09:29:53.077Z,4.63
2018-01-10T09:30:53.070Z,4.63
2018-01-10T09:31:53.048Z,4.60
2018-01-10T09:32:53.041Z,4.66
2018-01-10T09:33:53.049Z,4.60
2018-01-10T09:34:53.197Z,4.67
2018-01-10T09:35:53.033Z,4.62
2018-01-10T09:36:53.014Z,4.63
2018-01-10T09:37:53.004Z,4.62
2018-01-10T09:38:53.015Z,4.80
2018-01-10T09:39:52.991Z,4.60
2018-01-10T09:40:52.985Z,4.63
2018-01-10T09:41:52.976Z,4.66
2018-01-10T09:42:52.983Z,4.66
2018-01-10T09:43:52.959Z,4.60
2018-01-10T09:44:52.955Z,4.59
2018-01-10T09:45:52.947Z,4.60
2018-01-10T09:46:52.940Z,4.63
2018-01-10T09:47:52.930Z,4.63
2018-01-10T09:48:52.923Z,4.63
2018-01-10T09:49:52.919Z,4.63
2018-01-10T09:50:52.912Z,4.62
2018-01-10T09:51:52.913Z,4.60
2018-01-10T09:52:52.893Z,4.70
2018-01-10T09:53:52.887Z,4.78
2018-01-10T09:54:52.879Z,4.78
2018-01-10T09:55:52.894Z,4.84
2018-01-10T09:56:52.892Z,4.71
2018-01-10T09:57:52.870Z,4.84
2018-01-10T09:58:52.860Z,4.78
2018-01-10T09:59:52.846Z,4.90
2018-01-10T10:00:52.865Z,4.80
2018-01-10T10:01:52.827Z,4.80
2018-01-10T10:02:52.823Z,4.82
2018-01-10T10:03:52.817Z,4.74
2018-01-10T10:04:52.815Z,4.80
2018-01-10T10:05:52.811Z,4.77
2018-01-10T10:06:52.794Z,4.84
2018-01-10T10:07:52.783Z,4.78
2018-01-10T10:08:52.775Z,4.78
2018-01-10T10:09:52.772Z,4.89
2018-01-10T10:10:52.777Z,4.90
2018-01-10T10:11:52.849Z,4.87
2018-01-10T10:12:52.962Z,4.87
2018-01-10T10:13:53.635Z,4.93
2018-01-10T10:14:52.748Z,4.96
2018-01-10T10:15:52.737Z,4.89
2018-01-10T10:16:52.845Z,4.84
2018-01-10T10:17:52.904Z,4.87
2018-01-10T10:18:52.879Z,4.90
2018-01-10T10:19:52.730Z,4.87
2018-01-10T10:20:52.920Z,4.89
2018-01-10T10:21:52.755Z,4.89
2018-01-10T10:22:53.043Z,4.87
2018-01-10T10:23:52.815Z,4.90
2018-01-10T10:24:52.660Z,4.92
2018-01-10T10:25:52.686Z,4.93
2018-01-10T10:26:52.925Z,5.04
2018-01-10T10:27:52.853Z,5.07
2018-01-10T10:28:52.884Z,5.02
2018-01-10T10:29:53.587Z,4.99
2018-01-10T10:30:52.633Z,5.00
2018-01-10T10:31:52.628Z,5.05
2018-01-10T10:32:52.606Z,5.02
2018-01-10T10:33:52.598Z,5.04
2018-01-10T10:34:53.634Z,5.14
2018-01-10T10:35:52.667Z,5.14
2018-01-10T10:36:52.586Z,5.11
2018-01-10T10:37:52.571Z,5.12
2018-01-10T10:38:52.566Z,5.18
2018-01-10T10:39:52.559Z,5.15
2018-01-10T10:40:52.556Z,5.14
2018-01-10T10:41:52.538Z,5.17
2018-01-10T10:42:52.533Z,5.17
2018-01-10T10:43:52.568Z,5.11
2018-01-10T10:44:52.520Z,5.15
2018-01-10T10:45:52.509Z,5.17
2018-01-10T10:46:52.501Z,5.11
2018-01-10T10:47:52.494Z,5.12
2018-01-10T10:48:52.556Z,5.18
2018-01-10T10:49:52.486Z,5.12
2018-01-10T10:50:52.497Z,5.11
2018-01-10T10:51:52.467Z,5.17
2018-01-10T10:52:52.482Z,5.10
2018-01-10T10:53:52.460Z,5.29
2018-01-10T10:54:52.474Z,5.26
2018-01-10T10:55:52.439Z,5.23
2018-01-10T10:56:52.430Z,5.30
2018-01-10T10:57:52.424Z,5.29
2018-01-10T10:58:52.418Z,5.36
2018-01-10T10:59:52.410Z,5.41
2018-01-10T11:00:52.413Z,5.39
2018-01-10T11:01:52.397Z,5.43
2018-01-10T11:02:52.398Z,5.48
2018-01-10T11:03:52.379Z,5.51
2018-01-10T11:04:52.376Z,5.51
2018-01-10T11:05:52.367Z,5.47
2018-01-10T11:06:52.407Z,5.61
2018-01-10T11:07:52.354Z,5.53
2018-01-10T11:08:52.347Z,5.62
2018-01-10T11:09:52.345Z,5.57
2018-01-10T11:10:52.334Z,5.57
2018-01-10T11:11:52.330Z,5.69
2018-01-10T11:12:52.428Z,5.69
2018-01-10T11:13:52.318Z,5.73
2018-01-10T11:14:52.319Z,5.80
2018-01-10T11:15:52.304Z,5.71
2018-01-10T11:16:52.290Z,5.72
2018-01-10T11:17:52.385Z,5.71
2018-01-10T11:18:52.284Z,5.73
2018-01-10T11:19:52.330Z,5.75
2018-01-10T11:20:53.115Z,5.72
2018-01-10T11:21:52.258Z,5.79
2018-01-10T11:22:52.251Z,5.82
2018-01-10T11:23:52.241Z,5.72
2018-01-10T11:24:52.268Z,5.76
2018-01-10T11:25:52.231Z,5.75
2018-01-10T11:26:52.228Z,5.79
2018-01-10T11:27:52.320Z,5.73
2018-01-10T11:28:52.222Z,5.82
2018-01-10T11:29:52.213Z,5.75
2018-01-10T11:30:52.200Z,5.76
2018-01-10T11:31:52.190Z,5.75
2018-01-10T11:32:52.213Z,5.72
2018-01-10T11:33:52.175Z,5.83
2018-01-10T11:34:52.397Z,5.90
2018-01-10T11:35:52.162Z,5.84
2018-01-10T11:36:52.179Z,5.84
2018-01-10T11:37:52.151Z,5.83
2018-01-10T11:38:52.146Z,5.90
2018-01-10T11:39:52.144Z,5.97
2018-01-10T11:40:52.139Z,6.01
2018-01-10T11:41:52.446Z,5.98
2018-01-10T11:42:52.150Z,6.02
2018-01-10T11:43:52.180Z,6.09
2018-01-10T11:44:52.102Z,6.01
2018-01-10T11:45:52.120Z,6.02
2018-01-10T11:46:52.090Z,6.02
2018-01-10T11:47:52.082Z,6.08
2018-01-10T11:48:52.165Z,6.19
2018-01-10T11:49:52.069Z,6.12
2018-01-10T11:50:52.063Z,6.14
2018-01-10T11:51:52.054Z,6.17
2018-01-10T11:52:52.048Z,6.19
2018-01-10T11:53:52.059Z,6.11
2018-01-10T11:54:52.040Z,6.11
2018-01-10T11:55:52.029Z,6.16
2018-01-10T11:56:52.036Z,6.17
2018-01-10T11:57:52.036Z,6.14
2018-01-10T11:58:52.011Z,6.11
2018-01-10T11:59:52.053Z,6.22
2018-01-10T12:00:52.006Z,6.17
2018-01-10T12:01:51.993Z,6.20
2018-01-10T12:02:51.982Z,6.22
2018-01-10T12:03:51.976Z,6.27
2018-01-10T12:04:51.969Z,6.19
2018-01-10T12:05:51.963Z,6.24
2018-01-10T12:06:51.986Z,6.28
2018-01-10T12:07:51.956Z,6.19
2018-01-10T12:08:51.943Z,6.19
2018-01-10T12:09:51.975Z,6.33
2018-01-10T12:10:52.034Z,6.33
2018-01-10T12:11:51.924Z,6.33
2018-01-10T12:12:51.917Z,6.30
2018-01-10T12:13:51.912Z,6.44
2018-01-10T12:14:51.913Z,6.41
2018-01-10T12:15:51.899Z,6.38
2018-01-10T12:16:51.901Z,6.38
2018-01-10T12:17:51.888Z,6.48
2018-01-10T12:18:51.898Z,6.35
2018-01-10T12:19:51.917Z,6.54
2018-01-10T12:20:51.872Z,6.49
2018-01-10T12:21:51.863Z,6.52
2018-01-10T12:22:51.858Z,6.49
2018-01-10T12:23:51.848Z,6.56
2018-01-10T12:24:51.912Z,6.60
2018-01-10T12:25:51.842Z,6.60
2018-01-10T12:26:51.833Z,6.60
2018-01-10T12:27:51.838Z,6.57
2018-01-10T12:28:51.819Z,6.60
2018-01-10T12:29:51.825Z,6.63
2018-01-10T12:30:51.809Z,6.54
2018-01-10T12:31:51.799Z,6.63
2018-01-10T12:32:51.794Z,6.59
2018-01-10T12:33:51.788Z,6.75
2018-01-10T12:34:51.781Z,6.70
2018-01-10T12:35:51.782Z,6.70
2018-01-10T12:36:51.772Z,6.67
2018-01-10T12:37:52.012Z,6.72
2018-01-10T12:38:51.776Z,6.75
2018-01-10T12:39:51.750Z,6.75
2018-01-10T12:40:51.762Z,6.84
2018-01-10T12:41:51.750Z,6.84
2018-01-10T12:42:51.743Z,6.88
2018-01-10T12:43:51.728Z,6.95
2018-01-10T12:44:51.727Z,6.99
2018-01-10T12:45:51.717Z,6.97
2018-01-10T12:46:51.709Z,7.00
2018-01-10T12:47:51.702Z,7.07
2018-01-10T12:48:51.697Z,7.05
2018-01-10T12:49:51.695Z,7.14
2018-01-10T12:50:51.685Z,7.24
2018-01-10T12:51:51.690Z,7.23
2018-01-10T12:52:51.676Z,7.10
2018-01-10T12:53:51.748Z,7.15
2018-01-10T12:54:51.663Z,7.05
2018-01-10T12:55:51.715Z,7.00
2018-01-10T12:56:51.650Z,6.89
2018-01-10T12:57:51.648Z,6.82
2018-01-10T12:58:51.639Z,6.89
2018-01-10T12:59:51.633Z,6.72
2018-01-10T13:00:51.633Z,6.72
2018-01-10T13:01:51.622Z,6.72
2018-01-10T13:02:51.619Z,6.77
2018-01-10T13:03:51.623Z,6.72
2018-01-10T13:04:51.836Z,6.81
2018-01-10T13:05:51.596Z,6.82
2018-01-10T13:06:51.611Z,6.79
2018-01-10T13:07:51.585Z,6.82
2018-01-10T13:08:51.828Z,6.85
2018-01-10T13:09:51.635Z,6.85
2018-01-10T13:10:51.568Z,6.84
2018-01-10T13:11:51.558Z,6.89
2018-01-10T13:12:51.556Z,6.85
2018-01-10T13:13:51.548Z,6.87
2018-01-10T13:14:51.544Z,6.88
2018-01-10T13:15:51.532Z,6.93
2018-01-10T13:16:51.537Z,6.89
2018-01-10T13:17:51.523Z,6.97
2018-01-10T13:18:51.517Z,6.96
2018-01-10T13:19:51.528Z,6.99
2018-01-10T13:20:51.504Z,7.03
2018-01-10T13:21:51.641Z,6.93
2018-01-10T13:22:51.499Z,7.06
2018-01-10T13:23:51.482Z,7.06
2018-01-10T13:24:51.478Z,7.13
2018-01-10T13:25:51.470Z,7.18
2018-01-10T13:26:51.464Z,7.14
2018-01-10T13:27:51.458Z,7.20
2018-01-10T13:28:51.489Z,7.24
2018-01-10T13:29:51.446Z,7.24
2018-01-10T13:30:51.440Z,7.17
2018-01-10T13:31:51.437Z,7.28
2018-01-10T13:32:51.459Z,7.13
2018-01-10T13:33:51.421Z,7.25
2018-01-10T13:34:51.419Z,7.33
2018-01-10T13:35:51.410Z,7.36
2018-01-10T13:36:51.417Z,7.35
2018-01-10T13:37:51.408Z,7.33
2018-01-10T13:38:51.392Z,7.36
2018-01-10T13:39:51.385Z,7.45
2018-01-10T13:40:51.380Z,7.40
2018-01-10T13:41:51.376Z,7.47
2018-01-10T13:42:51.369Z,7.48
2018-01-10T13:43:51.366Z,7.43
2018-01-10T13:44:51.358Z,7.47
2018-01-10T13:45:51.350Z,7.48
2018-01-10T13:46:51.356Z,7.54
2018-01-10T13:47:51.340Z,7.43
2018-01-10T13:48:51.334Z,7.51
2018-01-10T13:49:51.334Z,7.45
2018-01-10T13:50:51.323Z,7.51
2018-01-10T13:51:51.317Z,7.56
2018-01-10T13:52:51.312Z,7.51
2018-01-10T13:53:51.307Z,7.57
2018-01-10T13:54:51.304Z,7.60
2018-01-10T13:55:51.297Z,7.48
2018-01-10T13:56:51.293Z,7.66
2018-01-10T13:57:51.291Z,7.67
2018-01-10T13:58:51.280Z,7.66
2018-01-10T13:59:51.275Z,7.73
2018-01-10T14:00:51.270Z,7.73
2018-01-10T14:01:51.274Z,7.80
2018-01-10T14:02:51.261Z,7.79
2018-01-10T14:03:51.258Z,7.76
2018-01-10T14:04:51.256Z,7.83
2018-01-10T14:05:51.244Z,7.88
2018-01-10T14:06:51.244Z,7.95
2018-01-10T14:07:51.235Z,7.94
2018-01-10T14:08:51.228Z,7.95
2018-01-10T14:09:51.223Z,7.97
2018-01-10T14:10:51.223Z,8.01
2018-01-10T14:11:51.212Z,7.98
2018-01-10T14:12:51.209Z,8.05
2018-01-10T14:13:51.206Z,8.08
2018-01-10T14:14:51.399Z,8.09